Terminal Aerodrome Forecast
Issued by NWS

Home | Current Version | Previous Version | Text Only | Print | Product List | Glossary On
Versions: 1 2 3 4 5 6 7 8 9 10 11 12 13 14 15 16 17 18 19 20 21
000
FTUS41 KGYX 281156 AAA
TAFRKD
TAF AMD
KRKD 281156Z 2812/2912 04006KT P6SM OVC004
      TEMPO 2812/2813 6SM -PL BR
     FM281600 09004KT 4SM BR OVC009
     FM282000 VRB03KT 3SM -SHRA BR OVC006
      AMD LTD TO CLD VIS AND WIND=

USA.gov is the U.S. government's official web portal to all federal, state and local government web resources and services.